sensor_id;sensor_type;location;lat;lon;timestamp;pressure;altitude;pressure_sealevel;temperature;humidity
12468;BME280;57850;52.922;6.256;2023-08-07T00:01:21;100632.19;;;18.53;100.00
12468;BME280;57850;52.922;6.256;2023-08-07T00:03:48;100603.09;;;18.29;100.00
12468;BME280;57850;52.922;6.256;2023-08-07T00:06:17;100591.47;;;18.55;100.00
12468;BME280;57850;52.922;6.256;2023-08-07T00:08:43;100604.53;;;18.33;100.00
12468;BME280;57850;52.922;6.256;2023-08-07T00:11:10;100605.88;;;18.39;100.00
12468;BME280;57850;52.922;6.256;2023-08-07T00:13:37;100600.00;;;18.35;100.00
12468;BME280;57850;52.922;6.256;2023-08-07T00:16:04;100607.91;;;18.71;100.00
12468;BME280;57850;52.922;6.256;2023-08-07T00:18:30;100644.53;;;18.65;100.00
12468;BME280;57850;52.922;6.256;2023-08-07T00:20:57;100667.28;;;18.55;100.00
12468;BME280;57850;52.922;6.256;2023-08-07T00:23:25;100653.13;;;18.43;100.00
12468;BME280;57850;52.922;6.256;2023-08-07T00:25:51;100641.16;;;18.63;100.00
12468;BME280;57850;52.922;6.256;2023-08-07T00:28:18;100642.34;;;18.46;100.00
12468;BME280;57850;52.922;6.256;2023-08-07T00:30:44;100647.75;;;18.45;100.00
12468;BME280;57850;52.922;6.256;2023-08-07T00:33:11;100639.44;;;18.62;100.00
12468;BME280;57850;52.922;6.256;2023-08-07T00:35:38;100680.72;;;18.52;100.00
12468;BME280;57850;52.922;6.256;2023-08-07T00:38:05;100672.59;;;18.79;100.00
12468;BME280;57850;52.922;6.256;2023-08-07T00:40:37;100741.91;;;18.33;100.00
12468;BME280;57850;52.922;6.256;2023-08-07T00:43:05;100712.41;;;18.39;100.00
12468;BME280;57850;52.922;6.256;2023-08-07T00:45:35;100716.22;;;18.48;100.00
12468;BME280;57850;52.922;6.256;2023-08-07T00:48:03;100725.81;;;18.49;100.00
12468;BME280;57850;52.922;6.256;2023-08-07T00:50:30;100741.19;;;18.56;100.00
12468;BME280;57850;52.922;6.256;2023-08-07T00:52:57;100743.31;;;18.26;100.00
12468;BME280;57850;52.922;6.256;2023-08-07T00:55:24;100735.16;;;17.91;100.00
12468;BME280;57850;52.922;6.256;2023-08-07T00:57:52;100737.38;;;18.23;100.00
12468;BME280;57850;52.922;6.256;2023-08-07T01:00:19;100746.16;;;18.10;100.00
12468;BME280;57850;52.922;6.256;2023-08-07T01:02:47;100763.44;;;17.89;100.00
12468;BME280;57850;52.922;6.256;2023-08-07T01:05:17;100757.53;;;18.36;100.00
12468;BME280;57850;52.922;6.256;2023-08-07T01:07:47;100776.16;;;18.22;100.00
12468;BME280;57850;52.922;6.256;2023-08-07T01:10:17;100786.94;;;18.19;100.00
12468;BME280;57850;52.922;6.256;2023-08-07T01:12:50;100777.41;;;17.91;100.00
12468;BME280;57850;52.922;6.256;2023-08-07T01:15:23;100756.41;;;18.15;100.00
12468;BME280;57850;52.922;6.256;2023-08-07T01:17:52;100774.03;;;18.14;100.00
12468;BME280;57850;52.922;6.256;2023-08-07T01:20:20;100778.38;;;18.03;100.00
12468;BME280;57850;52.922;6.256;2023-08-07T01:22:49;100769.16;;;18.08;100.00
12468;BME280;57850;52.922;6.256;2023-08-07T01:25:16;100813.88;;;18.24;100.00
12468;BME280;57850;52.922;6.256;2023-08-07T01:27:49;100804.88;;;18.14;100.00
12468;BME280;57850;52.922;6.256;2023-08-07T01:30:23;100799.38;;;18.30;100.00
12468;BME280;57850;52.922;6.256;2023-08-07T01:32:58;100820.00;;;18.12;100.00
12468;BME280;57850;52.922;6.256;2023-08-07T01:35:27;100818.41;;;18.09;100.00
12468;BME280;57850;52.922;6.256;2023-08-07T01:37:57;100781.31;;;18.11;100.00
12468;BME280;57850;52.922;6.256;2023-08-07T01:40:25;100770.41;;;17.78;100.00
12468;BME280;57850;52.922;6.256;2023-08-07T01:42:53;100754.13;;;17.71;100.00
12468;BME280;57850;52.922;6.256;2023-08-07T01:45:23;100765.34;;;17.87;100.00
12468;BME280;57850;52.922;6.256;2023-08-07T01:47:50;100778.38;;;18.15;100.00
12468;BME280;57850;52.922;6.256;2023-08-07T01:50:18;100795.09;;;17.77;100.00
12468;BME280;57850;52.922;6.256;2023-08-07T01:52:45;100788.22;;;17.61;100.00
12468;BME280;57850;52.922;6.256;2023-08-07T01:55:14;100771.91;;;17.82;100.00
12468;BME280;57850;52.922;6.256;2023-08-07T01:57:41;100761.09;;;17.45;100.00
12468;BME280;57850;52.922;6.256;2023-08-07T02:00:09;100756.34;;;17.64;100.00
12468;BME280;57850;52.922;6.256;2023-08-07T02:02:36;100743.41;;;17.47;100.00
12468;BME280;57850;52.922;6.256;2023-08-07T02:05:03;100721.78;;;17.55;100.00
12468;BME280;57850;52.922;6.256;2023-08-07T02:07:29;100747.03;;;17.59;100.00
12468;BME280;57850;52.922;6.256;2023-08-07T02:09:56;100764.28;;;17.77;100.00
12468;BME280;57850;52.922;6.256;2023-08-07T02:12:25;100755.78;;;17.33;100.00
12468;BME280;57850;52.922;6.256;2023-08-07T02:14:52;100728.47;;;17.34;100.00
12468;BME280;57850;52.922;6.256;2023-08-07T02:17:20;100702.97;;;17.47;100.00
12468;BME280;57850;52.922;6.256;2023-08-07T02:19:48;100672.53;;;17.16;100.00
12468;BME280;57850;52.922;6.256;2023-08-07T02:22:15;100675.69;;;17.21;100.00
12468;BME280;57850;52.922;6.256;2023-08-07T02:24:41;100684.06;;;17.40;100.00
12468;BME280;57850;52.922;6.256;2023-08-07T02:27:08;100692.28;;;17.36;100.00
12468;BME280;57850;52.922;6.256;2023-08-07T02:29:36;100662.22;;;17.26;100.00
12468;BME280;57850;52.922;6.256;2023-08-07T02:32:03;100661.66;;;17.21;100.00
12468;BME280;57850;52.922;6.256;2023-08-07T02:34:30;100617.13;;;17.03;100.00
12468;BME280;57850;52.922;6.256;2023-08-07T02:36:57;100604.47;;;17.08;100.00
12468;BME280;57850;52.922;6.256;2023-08-07T02:39:24;100609.03;;;17.19;100.00
12468;BME280;57850;52.922;6.256;2023-08-07T02:41:51;100625.09;;;17.41;100.00
12468;BME280;57850;52.922;6.256;2023-08-07T02:44:18;100644.25;;;17.18;100.00
12468;BME280;57850;52.922;6.256;2023-08-07T02:46:46;100627.59;;;17.18;100.00
12468;BME280;57850;52.922;6.256;2023-08-07T02:49:14;100651.22;;;17.19;100.00
12468;BME280;57850;52.922;6.256;2023-08-07T02:51:40;100650.00;;;17.37;100.00
12468;BME280;57850;52.922;6.256;2023-08-07T02:54:07;100662.63;;;17.32;100.00
12468;BME280;57850;52.922;6.256;2023-08-07T02:56:33;100635.63;;;17.29;100.00
12468;BME280;57850;52.922;6.256;2023-08-07T02:59:00;100646.81;;;17.20;100.00
12468;BME280;57850;52.922;6.256;2023-08-07T03:01:27;100649.44;;;17.32;100.00
12468;BME280;57850;52.922;6.256;2023-08-07T03:03:55;100667.72;;;17.48;100.00
12468;BME280;57850;52.922;6.256;2023-08-07T03:06:22;100687.81;;;17.24;100.00
12468;BME280;57850;52.922;6.256;2023-08-07T03:08:49;100658.09;;;17.22;100.00
12468;BME280;57850;52.922;6.256;2023-08-07T03:11:16;100670.41;;;17.21;100.00
12468;BME280;57850;52.922;6.256;2023-08-07T03:13:42;100634.00;;;17.13;100.00
12468;BME280;57850;52.922;6.256;2023-08-07T03:16:10;100623.28;;;17.29;100.00
12468;BME280;57850;52.922;6.256;2023-08-07T03:18:36;100612.31;;;17.23;100.00
12468;BME280;57850;52.922;6.256;2023-08-07T03:21:04;100611.13;;;17.27;100.00
12468;BME280;57850;52.922;6.256;2023-08-07T03:23:31;100593.00;;;17.22;100.00
12468;BME280;57850;52.922;6.256;2023-08-07T03:26:04;100550.69;;;17.36;100.00
12468;BME280;57850;52.922;6.256;2023-08-07T03:28:32;100541.63;;;17.53;100.00
12468;BME280;57850;52.922;6.256;2023-08-07T03:30:58;100559.25;;;17.52;100.00
12468;BME280;57850;52.922;6.256;2023-08-07T03:33:25;100548.81;;;17.38;100.00
12468;BME280;57850;52.922;6.256;2023-08-07T03:35:51;100510.06;;;17.13;100.00
12468;BME280;57850;52.922;6.256;2023-08-07T03:38:20;100379.03;;;17.39;100.00
12468;BME280;57850;52.922;6.256;2023-08-07T03:40:47;100317.56;;;17.26;100.00
12468;BME280;57850;52.922;6.256;2023-08-07T03:43:14;100269.72;;;17.43;100.00
12468;BME280;57850;52.922;6.256;2023-08-07T03:45:41;100278.00;;;17.62;100.00
12468;BME280;57850;52.922;6.256;2023-08-07T03:48:08;100305.41;;;17.73;100.00
12468;BME280;57850;52.922;6.256;2023-08-07T03:50:34;100332.50;;;17.75;100.00
12468;BME280;57850;52.922;6.256;2023-08-07T03:53:02;100332.66;;;17.84;100.00
12468;BME280;57850;52.922;6.256;2023-08-07T03:55:31;100348.31;;;17.63;100.00
12468;BME280;57850;52.922;6.256;2023-08-07T03:57:57;100316.00;;;17.84;100.00
12468;BME280;57850;52.922;6.256;2023-08-07T04:00:24;100327.03;;;17.89;100.00
12468;BME280;57850;52.922;6.256;2023-08-07T04:02:50;100321.03;;;17.87;100.00
12468;BME280;57850;52.922;6.256;2023-08-07T04:05:17;100311.81;;;17.92;100.00
12468;BME280;57850;52.922;6.256;2023-08-07T04:07:44;100307.34;;;17.82;100.00
12468;BME280;57850;52.922;6.256;2023-08-07T04:10:11;100298.75;;;18.02;100.00
12468;BME280;57850;52.922;6.256;2023-08-07T04:12:39;100311.78;;;18.16;100.00
12468;BME280;57850;52.922;6.256;2023-08-07T04:15:07;100325.41;;;17.99;100.00
12468;BME280;57850;52.922;6.256;2023-08-07T04:17:34;100328.78;;;18.01;100.00
12468;BME280;57850;52.922;6.256;2023-08-07T04:20:01;100322.19;;;18.06;100.00
12468;BME280;57850;52.922;6.256;2023-08-07T04:22:28;100346.75;;;17.96;100.00
12468;BME280;57850;52.922;6.256;2023-08-07T04:24:55;100361.13;;;17.92;100.00
12468;BME280;57850;52.922;6.256;2023-08-07T04:27:22;100362.41;;;17.86;100.00
12468;BME280;57850;52.922;6.256;2023-08-07T04:29:50;100382.44;;;17.78;100.00
12468;BME280;57850;52.922;6.256;2023-08-07T04:32:17;100397.31;;;17.79;100.00
12468;BME280;57850;52.922;6.256;2023-08-07T04:34:43;100408.16;;;17.50;100.00
12468;BME280;57850;52.922;6.256;2023-08-07T04:37:10;100345.78;;;17.97;100.00
12468;BME280;57850;52.922;6.256;2023-08-07T04:39:36;100378.66;;;17.69;100.00
12468;BME280;57850;52.922;6.256;2023-08-07T04:42:04;100372.34;;;17.83;100.00
12468;BME280;57850;52.922;6.256;2023-08-07T04:44:30;100381.06;;;17.96;100.00
12468;BME280;57850;52.922;6.256;2023-08-07T04:46:58;100417.34;;;17.81;100.00
12468;BME280;57850;52.922;6.256;2023-08-07T04:49:25;100400.34;;;17.85;100.00
12468;BME280;57850;52.922;6.256;2023-08-07T04:51:52;100409.09;;;18.09;100.00
12468;BME280;57850;52.922;6.256;2023-08-07T04:54:20;100437.41;;;17.84;100.00
12468;BME280;57850;52.922;6.256;2023-08-07T04:56:46;100431.91;;;17.87;100.00
12468;BME280;57850;52.922;6.256;2023-08-07T04:59:13;100439.47;;;17.67;100.00
12468;BME280;57850;52.922;6.256;2023-08-07T05:01:40;100404.25;;;17.80;100.00
12468;BME280;57850;52.922;6.256;2023-08-07T05:04:08;100361.03;;;17.93;100.00
12468;BME280;57850;52.922;6.256;2023-08-07T05:06:34;100368.09;;;17.93;100.00
12468;BME280;57850;52.922;6.256;2023-08-07T05:09:02;100394.53;;;17.80;100.00
12468;BME280;57850;52.922;6.256;2023-08-07T05:11:29;100387.09;;;17.74;100.00
12468;BME280;57850;52.922;6.256;2023-08-07T05:13:56;100385.84;;;17.67;100.00
12468;BME280;57850;52.922;6.256;2023-08-07T05:16:22;100371.97;;;17.76;100.00
12468;BME280;57850;52.922;6.256;2023-08-07T05:18:50;100373.75;;;17.99;100.00
12468;BME280;57850;52.922;6.256;2023-08-07T05:21:18;100390.44;;;18.00;100.00
12468;BME280;57850;52.922;6.256;2023-08-07T05:23:45;100413.84;;;18.04;100.00
12468;BME280;57850;52.922;6.256;2023-08-07T05:26:12;100433.75;;;17.97;100.00
12468;BME280;57850;52.922;6.256;2023-08-07T05:28:40;100446.63;;;18.02;100.00
12468;BME280;57850;52.922;6.256;2023-08-07T05:31:06;100462.00;;;18.08;100.00
12468;BME280;57850;52.922;6.256;2023-08-07T05:33:33;100490.56;;;18.03;100.00
12468;BME280;57850;52.922;6.256;2023-08-07T05:35:59;100498.88;;;18.09;100.00
12468;BME280;57850;52.922;6.256;2023-08-07T05:38:27;100500.06;;;18.29;100.00
12468;BME280;57850;52.922;6.256;2023-08-07T05:40:54;100509.13;;;18.49;100.00
12468;BME280;57850;52.922;6.256;2023-08-07T05:43:20;100543.94;;;18.19;100.00
12468;BME280;57850;52.922;6.256;2023-08-07T05:45:47;100530.25;;;18.38;100.00
12468;BME280;57850;52.922;6.256;2023-08-07T05:48:14;100554.13;;;18.36;100.00
12468;BME280;57850;52.922;6.256;2023-08-07T05:50:41;100560.34;;;18.11;100.00
12468;BME280;57850;52.922;6.256;2023-08-07T05:53:08;100546.88;;;18.27;100.00
12468;BME280;57850;52.922;6.256;2023-08-07T05:55:39;100570.41;;;18.30;100.00
12468;BME280;57850;52.922;6.256;2023-08-07T05:58:06;100580.84;;;18.44;100.00
12468;BME280;57850;52.922;6.256;2023-08-07T06:00:33;100601.75;;;18.47;100.00
12468;BME280;57850;52.922;6.256;2023-08-07T06:03:00;100601.22;;;18.55;100.00
12468;BME280;57850;52.922;6.256;2023-08-07T06:05:27;100639.88;;;18.19;100.00
12468;BME280;57850;52.922;6.256;2023-08-07T06:07:53;100669.47;;;18.12;100.00
12468;BME280;57850;52.922;6.256;2023-08-07T06:10:21;100682.16;;;18.07;100.00
12468;BME280;57850;52.922;6.256;2023-08-07T06:12:49;100691.66;;;17.97;100.00
12468;BME280;57850;52.922;6.256;2023-08-07T06:15:16;100682.34;;;18.16;100.00
12468;BME280;57850;52.922;6.256;2023-08-07T06:17:42;100680.16;;;18.10;100.00
12468;BME280;57850;52.922;6.256;2023-08-07T06:20:09;100715.94;;;18.02;100.00
12468;BME280;57850;52.922;6.256;2023-08-07T06:22:37;100700.19;;;18.26;100.00
12468;BME280;57850;52.922;6.256;2023-08-07T06:25:04;100712.97;;;18.19;100.00
12468;BME280;57850;52.922;6.256;2023-08-07T06:27:31;100695.19;;;18.34;100.00
12468;BME280;57850;52.922;6.256;2023-08-07T06:29:59;100705.25;;;18.41;100.00
12468;BME280;57850;52.922;6.256;2023-08-07T06:32:25;100706.28;;;18.51;100.00
12468;BME280;57850;52.922;6.256;2023-08-07T06:34:52;100715.28;;;18.36;100.00
12468;BME280;57850;52.922;6.256;2023-08-07T06:37:19;100729.25;;;18.38;100.00
12468;BME280;57850;52.922;6.256;2023-08-07T06:39:46;100705.03;;;18.32;100.00
12468;BME280;57850;52.922;6.256;2023-08-07T06:42:12;100710.41;;;18.43;100.00
12468;BME280;57850;52.922;6.256;2023-08-07T06:44:39;100741.88;;;18.46;100.00
12468;BME280;57850;52.922;6.256;2023-08-07T06:47:07;100757.03;;;18.44;100.00
12468;BME280;57850;52.922;6.256;2023-08-07T06:49:34;100741.97;;;18.82;100.00
12468;BME280;57850;52.922;6.256;2023-08-07T06:52:01;100785.53;;;18.39;100.00
12468;BME280;57850;52.922;6.256;2023-08-07T06:54:28;100786.53;;;18.50;100.00
12468;BME280;57850;52.922;6.256;2023-08-07T06:56:54;100799.63;;;18.52;100.00
12468;BME280;57850;52.922;6.256;2023-08-07T06:59:21;100816.53;;;18.62;100.00
12468;BME280;57850;52.922;6.256;2023-08-07T07:01:49;100839.06;;;18.55;100.00
12468;BME280;57850;52.922;6.256;2023-08-07T07:04:17;100858.38;;;19.30;100.00
12468;BME280;57850;52.922;6.256;2023-08-07T07:06:44;100903.25;;;18.95;100.00
12468;BME280;57850;52.922;6.256;2023-08-07T07:09:11;100950.94;;;19.06;100.00
12468;BME280;57850;52.922;6.256;2023-08-07T07:11:41;100964.59;;;19.00;100.00
12468;BME280;57850;52.922;6.256;2023-08-07T07:14:08;100930.81;;;19.16;100.00
12468;BME280;57850;52.922;6.256;2023-08-07T07:16:35;100981.72;;;19.07;100.00
12468;BME280;57850;52.922;6.256;2023-08-07T07:19:03;100974.19;;;19.39;100.00
12468;BME280;57850;52.922;6.256;2023-08-07T07:21:31;100997.06;;;19.40;100.00
12468;BME280;57850;52.922;6.256;2023-08-07T07:23:58;101054.31;;;19.15;100.00
12468;BME280;57850;52.922;6.256;2023-08-07T07:26:24;101071.22;;;19.00;100.00
12468;BME280;57850;52.922;6.256;2023-08-07T07:28:51;101035.78;;;19.28;100.00
12468;BME280;57850;52.922;6.256;2023-08-07T07:31:17;101056.91;;;18.90;100.00
12468;BME280;57850;52.922;6.256;2023-08-07T07:33:44;101055.41;;;17.79;100.00
12468;BME280;57850;52.922;6.256;2023-08-07T07:36:14;100960.78;;;17.86;100.00
12468;BME280;57850;52.922;6.256;2023-08-07T07:38:42;100956.09;;;17.91;100.00
12468;BME280;57850;52.922;6.256;2023-08-07T07:41:09;100999.31;;;18.02;100.00
12468;BME280;57850;52.922;6.256;2023-08-07T07:43:36;101045.13;;;18.15;100.00
12468;BME280;57850;52.922;6.256;2023-08-07T07:46:03;101057.19;;;18.46;100.00
12468;BME280;57850;52.922;6.256;2023-08-07T07:48:30;101076.19;;;18.39;100.00
12468;BME280;57850;52.922;6.256;2023-08-07T07:50:58;101056.63;;;18.55;100.00
12468;BME280;57850;52.922;6.256;2023-08-07T07:53:24;101082.38;;;18.25;100.00
12468;BME280;57850;52.922;6.256;2023-08-07T07:55:52;101073.72;;;18.89;100.00
12468;BME280;57850;52.922;6.256;2023-08-07T07:58:19;101061.94;;;19.20;100.00
12468;BME280;57850;52.922;6.256;2023-08-07T08:00:46;101101.91;;;19.03;100.00
12468;BME280;57850;52.922;6.256;2023-08-07T08:03:13;101141.31;;;19.20;100.00
12468;BME280;57850;52.922;6.256;2023-08-07T08:05:39;101139.91;;;19.54;100.00
12468;BME280;57850;52.922;6.256;2023-08-07T08:08:06;101154.06;;;19.53;100.00
12468;BME280;57850;52.922;6.256;2023-08-07T08:10:33;101179.50;;;19.93;100.00
12468;BME280;57850;52.922;6.256;2023-08-07T08:13:01;101186.34;;;20.46;100.00
12468;BME280;57850;52.922;6.256;2023-08-07T08:15:29;101224.53;;;20.06;100.00
12468;BME280;57850;52.922;6.256;2023-08-07T08:17:55;101279.25;;;19.67;100.00
12468;BME280;57850;52.922;6.256;2023-08-07T08:20:22;101245.03;;;19.25;100.00
12468;BME280;57850;52.922;6.256;2023-08-07T08:22:49;101259.06;;;19.13;100.00
12468;BME280;57850;52.922;6.256;2023-08-07T08:25:16;101261.44;;;19.30;100.00
12468;BME280;57850;52.922;6.256;2023-08-07T08:27:44;101308.47;;;19.53;100.00
12468;BME280;57850;52.922;6.256;2023-08-07T08:30:12;101303.16;;;20.18;100.00
12468;BME280;57850;52.922;6.256;2023-08-07T08:32:39;101344.03;;;20.41;100.00
12468;BME280;57850;52.922;6.256;2023-08-07T08:35:06;101379.09;;;19.80;100.00
12468;BME280;57850;52.922;6.256;2023-08-07T08:37:33;101396.81;;;19.65;100.00
12468;BME280;57850;52.922;6.256;2023-08-07T08:39:59;101412.13;;;19.74;100.00
12468;BME280;57850;52.922;6.256;2023-08-07T08:42:26;101396.44;;;19.71;100.00
12468;BME280;57850;52.922;6.256;2023-08-07T08:44:54;101394.31;;;20.42;100.00
12468;BME280;57850;52.922;6.256;2023-08-07T08:47:25;101408.63;;;20.65;100.00
12468;BME280;57850;52.922;6.256;2023-08-07T08:50:02;101407.47;;;20.81;100.00
12468;BME280;57850;52.922;6.256;2023-08-07T08:52:31;101419.66;;;21.09;100.00
12468;BME280;57850;52.922;6.256;2023-08-07T08:54:58;101440.47;;;20.90;100.00
12468;BME280;57850;52.922;6.256;2023-08-07T08:57:25;101477.88;;;20.35;100.00
12468;BME280;57850;52.922;6.256;2023-08-07T08:59:52;101459.41;;;21.47;100.00
12468;BME280;57850;52.922;6.256;2023-08-07T09:02:19;101527.97;;;21.29;100.00
12468;BME280;57850;52.922;6.256;2023-08-07T09:04:48;101564.50;;;21.39;100.00
12468;BME280;57850;52.922;6.256;2023-08-07T09:07:15;101569.91;;;21.37;100.00
12468;BME280;57850;52.922;6.256;2023-08-07T09:09:43;101567.09;;;21.76;100.00
12468;BME280;57850;52.922;6.256;2023-08-07T09:12:16;101569.84;;;22.00;100.00
12468;BME280;57850;52.922;6.256;2023-08-07T09:14:49;101578.16;;;22.43;100.00
12468;BME280;57850;52.922;6.256;2023-08-07T09:17:17;101610.03;;;21.20;100.00
12468;BME280;57850;52.922;6.256;2023-08-07T09:19:43;101610.38;;;21.53;100.00
12468;BME280;57850;52.922;6.256;2023-08-07T09:22:12;101597.47;;;21.98;100.00
12468;BME280;57850;52.922;6.256;2023-08-07T09:24:39;101610.16;;;21.69;100.00
12468;BME280;57850;52.922;6.256;2023-08-07T09:27:07;101622.56;;;21.94;100.00
12468;BME280;57850;52.922;6.256;2023-08-07T09:29:33;101641.38;;;21.53;100.00
12468;BME280;57850;52.922;6.256;2023-08-07T09:32:06;101621.41;;;21.47;100.00
12468;BME280;57850;52.922;6.256;2023-08-07T09:34:33;101624.72;;;21.51;100.00
12468;BME280;57850;52.922;6.256;2023-08-07T09:37:01;101635.13;;;21.54;100.00
12468;BME280;57850;52.922;6.256;2023-08-07T09:39:29;101617.59;;;21.76;100.00
12468;BME280;57850;52.922;6.256;2023-08-07T09:41:56;101628.41;;;21.86;100.00
12468;BME280;57850;52.922;6.256;2023-08-07T09:44:23;101592.63;;;23.21;100.00
12468;BME280;57850;52.922;6.256;2023-08-07T09:46:49;101580.56;;;23.84;100.00
12468;BME280;57850;52.922;6.256;2023-08-07T09:49:18;101616.38;;;22.42;100.00
12468;BME280;57850;52.922;6.256;2023-08-07T09:51:46;101613.84;;;22.64;100.00
12468;BME280;57850;52.922;6.256;2023-08-07T09:54:12;101637.44;;;21.83;100.00
12468;BME280;57850;52.922;6.256;2023-08-07T09:56:41;101622.66;;;22.41;100.00
12468;BME280;57850;52.922;6.256;2023-08-07T09:59:08;101605.84;;;23.34;100.00
12468;BME280;57850;52.922;6.256;2023-08-07T10:01:36;101552.22;;;25.00;100.00
12468;BME280;57850;52.922;6.256;2023-08-07T10:04:04;101515.84;;;25.30;100.00
12468;BME280;57850;52.922;6.256;2023-08-07T10:06:31;101531.50;;;24.40;100.00
12468;BME280;57850;52.922;6.256;2023-08-07T10:08:59;101551.03;;;23.76;100.00
12468;BME280;57850;52.922;6.256;2023-08-07T10:11:28;101578.50;;;23.21;100.00
12468;BME280;57850;52.922;6.256;2023-08-07T10:13:57;101631.44;;;22.18;100.00
12468;BME280;57850;52.922;6.256;2023-08-07T10:16:26;101652.84;;;21.78;100.00
12468;BME280;57850;52.922;6.256;2023-08-07T10:18:53;101672.19;;;21.03;100.00
12468;BME280;57850;52.922;6.256;2023-08-07T10:21:20;101685.53;;;21.16;100.00
12468;BME280;57850;52.922;6.256;2023-08-07T10:23:50;101690.44;;;20.95;100.00
12468;BME280;57850;52.922;6.256;2023-08-07T10:26:19;101665.28;;;21.53;100.00
12468;BME280;57850;52.922;6.256;2023-08-07T10:28:48;101680.56;;;21.36;100.00
12468;BME280;57850;52.922;6.256;2023-08-07T10:31:20;101591.25;;;23.95;100.00
12468;BME280;57850;52.922;6.256;2023-08-07T10:33:48;101524.13;;;25.27;100.00
12468;BME280;57850;52.922;6.256;2023-08-07T10:36:16;101585.06;;;23.94;100.00
12468;BME280;57850;52.922;6.256;2023-08-07T10:38:43;101571.97;;;24.14;100.00
12468;BME280;57850;52.922;6.256;2023-08-07T10:41:12;101567.44;;;24.25;100.00
12468;BME280;57850;52.922;6.256;2023-08-07T10:43:39;101586.38;;;24.00;100.00
12468;BME280;57850;52.922;6.256;2023-08-07T10:46:10;101644.97;;;22.15;100.00
12468;BME280;57850;52.922;6.256;2023-08-07T10:48:42;101663.91;;;22.10;100.00
12468;BME280;57850;52.922;6.256;2023-08-07T10:51:12;101662.28;;;22.33;100.00
12468;BME280;57850;52.922;6.256;2023-08-07T10:53:41;101658.09;;;22.05;100.00
12468;BME280;57850;52.922;6.256;2023-08-07T10:56:11;101588.19;;;23.99;100.00
12468;BME280;57850;52.922;6.256;2023-08-07T10:58:38;101540.47;;;24.71;100.00
12468;BME280;57850;52.922;6.256;2023-08-07T11:01:19;101546.44;;;24.64;100.00
12468;BME280;57850;52.922;6.256;2023-08-07T11:03:53;101583.63;;;23.79;100.00
12468;BME280;57850;52.922;6.256;2023-08-07T11:06:23;101631.94;;;22.59;100.00
12468;BME280;57850;52.922;6.256;2023-08-07T11:08:52;101614.78;;;23.22;100.00
12468;BME280;57850;52.922;6.256;2023-08-07T11:11:19;101590.03;;;24.21;100.00
12468;BME280;57850;52.922;6.256;2023-08-07T11:13:47;101616.31;;;23.48;100.00
12468;BME280;57850;52.922;6.256;2023-08-07T11:16:14;101586.97;;;24.26;100.00
12468;BME280;57850;52.922;6.256;2023-08-07T11:18:42;101571.09;;;24.24;100.00
12468;BME280;57850;52.922;6.256;2023-08-07T11:21:11;101602.63;;;23.75;100.00
12468;BME280;57850;52.922;6.256;2023-08-07T11:23:37;101583.97;;;24.19;100.00
12468;BME280;57850;52.922;6.256;2023-08-07T11:26:04;101639.38;;;22.90;100.00
12468;BME280;57850;52.922;6.256;2023-08-07T11:28:31;101680.91;;;22.20;100.00
12468;BME280;57850;52.922;6.256;2023-08-07T11:30:58;101674.78;;;23.04;100.00
12468;BME280;57850;52.922;6.256;2023-08-07T11:33:25;101626.28;;;23.79;100.00
12468;BME280;57850;52.922;6.256;2023-08-07T11:35:53;101619.34;;;23.66;100.00
12468;BME280;57850;52.922;6.256;2023-08-07T11:38:31;101645.25;;;23.41;100.00
12468;BME280;57850;52.922;6.256;2023-08-07T11:40:59;101685.66;;;22.28;100.00
12468;BME280;57850;52.922;6.256;2023-08-07T11:43:29;101694.00;;;22.11;100.00
12468;BME280;57850;52.922;6.256;2023-08-07T11:45:57;101706.25;;;22.01;100.00
12468;BME280;57850;52.922;6.256;2023-08-07T11:48:25;101727.91;;;21.82;100.00
12468;BME280;57850;52.922;6.256;2023-08-07T11:50:53;101703.66;;;21.86;100.00
12468;BME280;57850;52.922;6.256;2023-08-07T11:53:20;101706.22;;;22.26;100.00
12468;BME280;57850;52.922;6.256;2023-08-07T11:55:52;101703.47;;;21.77;100.00
12468;BME280;57850;52.922;6.256;2023-08-07T11:58:20;101691.53;;;22.69;100.00
12468;BME280;57850;52.922;6.256;2023-08-07T12:00:47;101694.41;;;22.30;100.00
12468;BME280;57850;52.922;6.256;2023-08-07T12:03:28;101714.66;;;21.43;100.00
12468;BME280;57850;52.922;6.256;2023-08-07T12:05:56;101728.31;;;21.63;100.00
12468;BME280;57850;52.922;6.256;2023-08-07T12:08:23;101740.38;;;21.29;100.00
12468;BME280;57850;52.922;6.256;2023-08-07T12:10:50;101726.13;;;21.95;100.00
12468;BME280;57850;52.922;6.256;2023-08-07T12:13:23;101750.09;;;21.81;100.00
12468;BME280;57850;52.922;6.256;2023-08-07T12:15:52;101792.84;;;21.12;100.00
12468;BME280;57850;52.922;6.256;2023-08-07T12:18:19;101787.25;;;21.02;100.00
12468;BME280;57850;52.922;6.256;2023-08-07T12:20:48;101788.16;;;20.18;100.00
12468;BME280;57850;52.922;6.256;2023-08-07T12:23:15;101769.28;;;20.38;100.00
12468;BME280;57850;52.922;6.256;2023-08-07T12:25:43;101756.66;;;20.97;100.00
12468;BME280;57850;52.922;6.256;2023-08-07T12:28:09;101753.84;;;21.26;100.00
12468;BME280;57850;52.922;6.256;2023-08-07T12:30:37;101751.28;;;21.25;100.00
12468;BME280;57850;52.922;6.256;2023-08-07T12:33:05;101756.34;;;21.42;100.00
12468;BME280;57850;52.922;6.256;2023-08-07T12:35:33;101757.13;;;21.17;100.00
12468;BME280;57850;52.922;6.256;2023-08-07T12:38:00;101760.84;;;21.27;100.00
12468;BME280;57850;52.922;6.256;2023-08-07T12:40:27;101783.91;;;20.72;100.00
12468;BME280;57850;52.922;6.256;2023-08-07T12:42:53;101792.91;;;19.69;100.00